| Date | Time | Temp. (oF) | Dew Point (oF) | Rel. Hum. (%) | Press. (in.) | Wind Dir. | Wind Speed (mph) | Hourly Rainfall (in.) |
|
|---|---|---|---|---|---|---|---|---|---|
| 1 | 01/08 | 00:00 | 27 | 21 | 79 | 29.87 | NW | 7 | 0.00 |
| 2 | 01/07 | 23:00 | 29 | 22 | 77 | 29.85 | NW | 7 | 0.00 |
| 3 | 01/07 | 22:00 | 31 | 23 | 72 | 29.82 | WNW | 15 | 0.00 |
| 4 | 01/07 | 21:00 | 32 | 25 | 77 | 29.78 | NW | 13 | 0.00 |
| 5 | 01/07 | 20:00 | 32 | 29 | 90 | 29.76 | NW | 7 | 0.00 |
| 6 | 01/07 | 19:00 | 32 | 28 | 85 | 29.75 | NW | 8 | 0.00 |
| 7 | 01/07 | 18:00 | 32 | 27 | 84 | 29.73 | NW | 6 | 0.00 |
| 8 | 01/07 | 17:00 | 33 | 28 | 83 | 29.70 | NW | 12 | 0.00 |
| 9 | 01/07 | 16:00 | 32 | 30 | 96 | 29.67 | NW | 9 | 0.00 |
| 10 | 01/07 | 15:00 | 33 | 32 | 100 | 29.66 | NW | 4 | 0.00 |
| 11 | 01/07 | 14:00 | 34 | 33 | 100 | 29.63 | NW | 7 | 0.00 |
| 12 | 01/07 | 13:00 | 33 | 32 | 100 | 29.62 | NW | 6 | 0.00 |
| 13 | 01/07 | 12:00 | 34 | 33 | 100 | 29.62 | NW | 4 | 0.00 |
| 14 | 01/07 | 11:00 | 34 | 33 | 100 | 29.63 | WNW | 7 | 0.00 |
| 15 | 01/07 | 10:00 | 32 | 32 | 100 | 29.64 | W | 7 | 0.00 |
| 16 | 01/07 | 09:00 | 32 | 32 | 100 | 29.61 | WNW | 6 | 0.01 |
| 17 | 01/07 | 08:00 | 31 | 31 | 100 | 29.61 | W | 2 | 0.00 |
| 18 | 01/07 | 07:00 | 32 | 32 | 100 | 29.59 | WNW | 4 | 0.01 |
| 19 | 01/07 | 06:00 | 32 | 32 | 100 | 29.56 | WNW | 3 | 0.00 |
| 20 | 01/07 | 05:00 | 32 | 32 | 100 | 29.54 | W | 7 | 0.00 |
| 21 | 01/07 | 04:00 | 32 | 32 | 100 | 29.54 | WSW | 5 | 0.00 |
| 22 | 01/07 | 03:00 | 32 | 32 | 100 | 29.54 | WNW | 4 | 0.01 |
| 23 | 01/07 | 02:00 | 32 | 32 | 100 | 29.52 | W | 3 | 0.00 |
| 24 | 01/07 | 01:00 | 32 | 32 | 100 | 29.49 | NW | 4 | 0.00 |